Time;durP1;ratioP1;P1;durP2;ratioP2;P2;SDS_P1;SDS_P2;PMS_P1;PMS_P2;Temp;Humidity;BMP_temperature;BMP_pressure;BME280_temperature;BME280_humidity;BME280_pressure;Samples;Min_cycle;Max_cycle;Signal;HPM_P1;HPM_P2
2021/08/17 00:01:45;;;;;;;3.83;2.40;;;14.60;99.90;;;;;;5031751;28;20505;-52
2021/08/17 00:04:12;;;;;;;4.07;2.00;;;14.80;99.90;;;;;;5022586;28;20520;-53
2021/08/17 00:06:39;;;;;;;4.37;2.10;;;14.90;99.90;;;;;;5014796;28;20465;-53
2021/08/17 00:09:06;;;;;;;2.80;2.03;;;14.90;99.90;;;;;;5032088;28;20453;-53
2021/08/17 00:11:33;;;;;;;3.03;1.80;;;14.90;99.90;;;;;;5032044;28;20534;-53
2021/08/17 00:14:00;;;;;;;3.17;1.80;;;15.10;99.90;;;;;;5031176;28;20481;-52
2021/08/17 00:16:28;;;;;;;3.20;2.33;;;15.10;99.90;;;;;;5031602;28;20519;-53
2021/08/17 00:18:56;;;;;;;3.20;2.10;;;15.20;99.90;;;;;;5031112;28;20452;-53
2021/08/17 00:21:23;;;;;;;2.60;1.83;;;15.70;99.90;;;;;;5030866;28;20477;-53
2021/08/17 00:23:50;;;;;;;3.60;2.30;;;15.50;99.90;;;;;;5031079;28;20448;-53
2021/08/17 00:26:17;;;;;;;5.23;3.20;;;15.40;99.90;;;;;;5031870;28;20456;-53
2021/08/17 00:28:44;;;;;;;8.00;4.77;;;15.00;99.90;;;;;;5031668;28;20498;-53
2021/08/17 00:31:11;;;;;;;10.70;5.60;;;14.80;99.90;;;;;;5030857;28;20488;-53
2021/08/17 00:33:38;;;;;;;6.57;4.37;;;14.90;99.90;;;;;;5029642;28;20453;-53
2021/08/17 00:36:07;;;;;;;9.20;4.50;;;14.70;99.90;;;;;;5031196;28;20515;-53
2021/08/17 00:38:35;;;;;;;8.67;5.10;;;14.60;99.90;;;;;;5031740;28;20441;-53
2021/08/17 00:41:02;;;;;;;10.47;5.33;;;14.70;99.90;;;;;;5030701;28;20464;-53
2021/08/17 00:43:29;;;;;;;14.33;8.00;;;14.60;99.90;;;;;;5030307;28;21020;-53
2021/08/17 00:45:56;;;;;;;15.77;7.93;;;14.60;99.90;;;;;;5030924;28;20452;-53
2021/08/17 00:48:23;;;;;;;15.37;7.40;;;14.70;99.90;;;;;;5031241;28;20452;-53
2021/08/17 00:50:50;;;;;;;12.20;6.70;;;14.50;99.90;;;;;;5031193;28;20546;-53
2021/08/17 00:53:20;;;;;;;7.93;4.43;;;14.40;99.90;;;;;;5030587;28;20499;-53
2021/08/17 00:55:48;;;;;;;11.67;6.47;;;14.30;99.90;;;;;;5031005;28;20536;-53
2021/08/17 00:58:15;;;;;;;10.80;5.83;;;14.50;99.90;;;;;;5031334;28;21012;-53
2021/08/17 01:00:42;;;;;;;13.30;7.80;;;14.60;99.90;;;;;;5030839;28;20468;-53
2021/08/17 01:03:09;;;;;;;14.00;7.23;;;14.50;99.90;;;;;;5030431;28;20453;-53
2021/08/17 01:05:36;;;;;;;19.70;9.10;;;14.50;99.90;;;;;;5030777;28;20453;-53
2021/08/17 01:08:03;;;;;;;20.33;10.47;;;14.50;99.90;;;;;;5030813;28;20460;-53
2021/08/17 01:10:31;;;;;;;17.63;8.80;;;14.40;99.90;;;;;;5031068;28;20542;-53
2021/08/17 01:12:58;;;;;;;18.07;8.63;;;14.40;99.90;;;;;;5030222;28;20507;-52
2021/08/17 01:15:25;;;;;;;18.17;9.37;;;14.30;99.90;;;;;;5030529;28;20526;-53
2021/08/17 01:17:52;;;;;;;18.57;9.57;;;14.30;99.90;;;;;;5031381;28;20522;-53
2021/08/17 01:20:20;;;;;;;14.77;8.23;;;14.50;99.90;;;;;;5030962;28;20468;-53
2021/08/17 01:22:49;;;;;;;17.07;9.63;;;14.70;99.90;;;;;;5030403;28;20456;-53
2021/08/17 01:25:17;;;;;;;18.43;8.80;;;14.60;99.90;;;;;;5011297;28;20504;-53
2021/08/17 01:27:46;;;;;;;18.33;9.57;;;14.70;99.90;;;;;;5011296;28;20966;-53
2021/08/17 01:30:15;;;;;;;18.73;9.30;;;14.70;99.90;;;;;;5023969;28;20538;-53
2021/08/17 01:32:45;;;;;;;17.40;9.10;;;14.70;99.90;;;;;;5033797;28;20456;-53
2021/08/17 01:35:13;;;;;;;19.43;9.83;;;14.70;99.90;;;;;;5018402;28;21004;-53
2021/08/17 01:37:40;;;;;;;19.80;10.03;;;14.50;99.90;;;;;;5034851;28;20540;-53
2021/08/17 01:40:09;;;;;;;22.17;10.63;;;14.70;99.90;;;;;;5034607;28;20468;-52
2021/08/17 01:42:36;;;;;;;22.27;11.60;;;14.50;99.90;;;;;;5034496;28;21091;-54
2021/08/17 01:45:06;;;;;;;21.27;11.07;;;14.40;99.90;;;;;;5034239;28;20448;-53
2021/08/17 01:47:33;;;;;;;20.33;10.57;;;14.40;99.90;;;;;;5034295;28;20461;-53
2021/08/17 01:50:01;;;;;;;18.70;10.13;;;14.40;99.90;;;;;;5032456;28;20562;-53
2021/08/17 01:52:29;;;;;;;23.10;11.43;;;14.40;99.90;;;;;;5033748;28;20499;-53
2021/08/17 01:54:56;;;;;;;25.53;11.63;;;14.30;99.90;;;;;;5034488;28;20506;-53
2021/08/17 01:57:23;;;;;;;20.27;10.43;;;14.20;99.90;;;;;;5034480;28;20952;-53
2021/08/17 01:59:51;;;;;;;19.53;10.93;;;14.10;99.90;;;;;;5030452;28;20465;-53
2021/08/17 02:02:23;;;;;;;20.70;10.73;;;14.10;99.90;;;;;;5015511;28;20495;-53
2021/08/17 02:04:50;;;;;;;22.07;11.07;;;14.10;99.90;;;;;;5024091;28;20452;-53
2021/08/17 02:07:16;;;;;;;23.77;11.77;;;14.00;99.90;;;;;;5034182;28;20494;-53
2021/08/17 02:09:43;;;;;;;20.00;10.77;;;14.20;99.90;;;;;;5033258;28;20464;-53
2021/08/17 02:12:11;;;;;;;20.97;10.30;;;14.20;99.90;;;;;;5033620;28;20955;-53
2021/08/17 02:14:37;;;;;;;21.30;10.67;;;14.20;99.90;;;;;;5034280;28;20869;-53
2021/08/17 02:17:05;;;;;;;19.80;10.50;;;14.30;99.90;;;;;;5033874;28;20449;-53
2021/08/17 02:19:33;;;;;;;23.00;10.90;;;14.30;99.90;;;;;;5032775;28;20530;-53
2021/08/17 02:22:00;;;;;;;21.33;11.27;;;14.30;99.90;;;;;;5033766;28;20507;-53
2021/08/17 02:24:27;;;;;;;21.77;10.40;;;14.30;99.90;;;;;;5034157;28;20526;-53
2021/08/17 02:26:54;;;;;;;19.80;10.73;;;14.20;99.90;;;;;;5034152;28;20499;-53
2021/08/17 02:29:22;;;;;;;18.93;10.93;;;14.20;99.90;;;;;;5033503;28;20518;-53
2021/08/17 02:31:49;;;;;;;21.27;11.10;;;14.20;99.90;;;;;;5032775;28;20876;-52
2021/08/17 02:34:16;;;;;;;18.30;9.97;;;14.20;99.90;;;;;;5033929;28;20869;-53
2021/08/17 02:36:45;;;;;;;25.60;11.70;;;14.20;99.90;;;;;;5034034;28;20471;-53
2021/08/17 02:39:12;;;;;;;20.53;10.30;;;14.10;99.90;;;;;;5033832;28;20457;-53
2021/08/17 02:41:39;;;;;;;20.23;10.57;;;14.30;99.90;;;;;;5033220;28;20453;-53
2021/08/17 02:44:06;;;;;;;18.43;10.10;;;14.30;99.90;;;;;;5032150;28;20971;-53
2021/08/17 02:46:33;;;;;;;18.77;9.53;;;14.20;99.90;;;;;;5033615;28;20943;-53
2021/08/17 02:49:00;;;;;;;21.10;10.33;;;14.30;99.90;;;;;;5033552;28;20526;-53
2021/08/17 02:51:27;;;;;;;21.80;10.33;;;14.30;99.90;;;;;;5032142;28;20488;-53
2021/08/17 02:53:55;;;;;;;18.40;10.03;;;14.30;99.90;;;;;;5022217;28;20480;-53
2021/08/17 02:56:22;;;;;;;22.47;11.13;;;14.30;99.90;;;;;;5013842;28;20453;-53
2021/08/17 02:58:49;;;;;;;16.10;9.53;;;14.30;99.90;;;;;;5031284;28;20499;-53
2021/08/17 03:01:16;;;;;;;19.23;9.93;;;14.30;99.90;;;;;;5032315;28;20489;-52
2021/08/17 03:03:43;;;;;;;21.43;10.23;;;14.30;99.90;;;;;;5033048;28;20453;-53
2021/08/17 03:06:10;;;;;;;18.07;10.23;;;14.30;99.90;;;;;;5033421;28;21009;-53
2021/08/17 03:08:37;;;;;;;19.77;10.33;;;14.30;99.90;;;;;;5033278;28;20448;-53
2021/08/17 03:11:06;;;;;;;21.00;11.03;;;14.40;99.90;;;;;;5031557;28;20868;-53
2021/08/17 03:13:33;;;;;;;16.90;9.43;;;14.40;99.90;;;;;;5032845;28;20510;-52
2021/08/17 03:16:00;;;;;;;22.27;10.63;;;14.50;99.90;;;;;;5032970;28;20502;-53
2021/08/17 03:18:26;;;;;;;18.47;9.70;;;14.50;99.90;;;;;;5032619;28;20445;-52
2021/08/17 03:20:57;;;;;;;19.87;10.30;;;14.50;99.90;;;;;;5023223;28;20470;-52
2021/08/17 03:23:26;;;;;;;19.00;9.67;;;14.50;99.90;;;;;;5031595;28;20456;-53
2021/08/17 03:25:53;;;;;;;20.20;10.20;;;14.40;99.90;;;;;;5032487;28;20449;-53
2021/08/17 03:28:22;;;;;;;18.53;10.20;;;14.50;99.90;;;;;;5032877;28;20449;-53
2021/08/17 03:30:49;;;;;;;20.03;10.60;;;14.60;99.90;;;;;;5031958;28;20488;-53
2021/08/17 03:33:16;;;;;;;20.53;10.07;;;14.60;99.90;;;;;;5032097;28;20510;-53
2021/08/17 03:35:43;;;;;;;19.30;10.10;;;14.50;99.90;;;;;;5032106;28;20453;-53
2021/08/17 03:38:10;;;;;;;20.37;9.70;;;14.50;99.90;;;;;;5032246;28;20453;-53
2021/08/17 03:40:37;;;;;;;27.27;12.13;;;14.60;99.90;;;;;;5031204;28;20476;-53
2021/08/17 03:43:04;;;;;;;24.10;12.30;;;14.40;99.90;;;;;;5012535;28;20457;-53
2021/08/17 03:45:32;;;;;;;20.53;9.80;;;14.30;99.90;;;;;;5012640;28;20512;-53
2021/08/17 03:47:59;;;;;;;22.07;11.83;;;14.40;99.90;;;;;;5031836;28;20515;-52
2021/08/17 03:50:26;;;;;;;22.07;10.70;;;14.50;99.90;;;;;;5031468;28;20488;-53
2021/08/17 03:52:53;;;;;;;20.60;11.30;;;14.50;99.90;;;;;;5031846;28;20514;-53
2021/08/17 03:55:21;;;;;;;22.20;10.93;;;14.50;99.90;;;;;;5032194;28;20453;-53
2021/08/17 03:57:48;;;;;;;19.30;10.13;;;14.50;99.90;;;;;;5031270;28;20536;-52
2021/08/17 04:00:18;;;;;;;23.20;11.13;;;14.50;99.90;;;;;;5016533;28;20470;-53
2021/08/17 04:02:47;;;;;;;23.47;11.97;;;14.50;99.90;;;;;;5016347;28;20614;-53
2021/08/17 04:05:14;;;;;;;20.67;9.83;;;14.40;99.90;;;;;;5010644;28;20445;-53
2021/08/17 04:07:41;;;;;;;19.93;11.27;;;14.50;99.90;;;;;;5010425;28;20451;-53
2021/08/17 04:10:09;;;;;;;21.10;10.67;;;14.50;99.90;;;;;;5021755;28;20468;-53
2021/08/17 04:12:36;;;;;;;18.97;9.83;;;14.50;99.90;;;;;;5031078;28;20938;-53
2021/08/17 04:15:03;;;;;;;18.23;8.97;;;14.40;99.90;;;;;;5023953;28;20450;-53
2021/08/17 04:17:31;;;;;;;20.53;9.57;;;14.40;99.90;;;;;;5023262;28;20456;-53
2021/08/17 04:20:00;;;;;;;19.23;9.20;;;14.40;99.90;;;;;;5030780;28;20558;-52
2021/08/17 04:22:30;;;;;;;20.03;9.60;;;14.40;99.90;;;;;;5031179;28;20533;-52
2021/08/17 04:24:57;;;;;;;20.50;9.30;;;14.30;99.90;;;;;;5030835;28;20453;-53
2021/08/17 04:27:24;;;;;;;18.70;9.10;;;14.20;99.90;;;;;;5031758;28;20529;-53
2021/08/17 04:29:51;;;;;;;17.70;8.87;;;14.20;99.90;;;;;;5029799;28;20480;-53
2021/08/17 04:32:22;;;;;;;18.73;9.63;;;14.30;99.90;;;;;;5030735;28;20577;-53
2021/08/17 04:34:49;;;;;;;20.33;9.53;;;14.20;99.90;;;;;;5031623;28;20945;-53
2021/08/17 04:37:17;;;;;;;18.07;8.70;;;14.10;99.90;;;;;;5029698;28;20449;-53
2021/08/17 04:39:44;;;;;;;19.23;9.47;;;14.10;99.90;;;;;;5018822;28;20473;-53
2021/08/17 04:42:12;;;;;;;18.20;9.27;;;14.10;99.90;;;;;;5030884;28;20937;-53
2021/08/17 04:44:39;;;;;;;17.27;9.33;;;14.10;99.90;;;;;;5031135;28;21079;-53
2021/08/17 04:47:06;;;;;;;18.83;9.63;;;14.10;99.90;;;;;;5017010;28;20519;-53
2021/08/17 04:49:33;;;;;;;20.03;9.80;;;14.20;99.90;;;;;;5016309;28;20599;-53
2021/08/17 04:52:01;;;;;;;20.33;9.30;;;14.10;99.90;;;;;;5069752;22;20557;-57
2021/08/17 04:54:29;;;;;;;20.43;9.90;;;14.10;99.90;;;;;;5036200;28;20452;-57
2021/08/17 04:56:56;;;;;;;18.17;9.73;;;14.10;99.90;;;;;;5051880;28;20458;-58
2021/08/17 04:59:23;;;;;;;23.17;10.40;;;14.10;99.90;;;;;;5049753;28;20811;-58
2021/08/17 05:01:50;;;;;;;18.53;9.30;;;14.10;99.90;;;;;;5050762;28;20547;-58
2021/08/17 05:04:17;;;;;;;22.87;9.93;;;14.10;99.90;;;;;;5031508;28;20453;-57
2021/08/17 05:06:44;;;;;;;22.70;10.40;;;14.10;99.90;;;;;;5030555;28;20449;-57
2021/08/17 05:09:12;;;;;;;19.37;9.90;;;14.20;99.90;;;;;;5036701;28;20812;-58
2021/08/17 05:11:40;;;;;;;17.80;9.27;;;14.20;99.90;;;;;;5030219;28;21061;-58
2021/08/17 05:14:07;;;;;;;16.13;9.13;;;14.20;99.90;;;;;;5031202;28;20467;-58
2021/08/17 05:16:35;;;;;;;20.33;8.40;;;14.20;99.90;;;;;;5032032;28;20449;-58
2021/08/17 05:19:02;;;;;;;17.20;8.97;;;14.20;99.90;;;;;;5031473;28;21003;-58
2021/08/17 05:21:29;;;;;;;16.70;10.20;;;14.20;99.90;;;;;;5051053;28;20981;-58
2021/08/17 05:23:57;;;;;;;16.90;9.30;;;14.30;99.90;;;;;;5051455;28;20458;-58
2021/08/17 05:26:24;;;;;;;17.43;8.70;;;14.40;99.90;;;;;;5045795;28;20546;-58
2021/08/17 05:28:52;;;;;;;16.93;8.23;;;14.40;99.90;;;;;;5051451;28;20456;-58
2021/08/17 05:31:19;;;;;;;15.80;8.23;;;14.40;99.90;;;;;;5038345;28;20488;-58
2021/08/17 05:33:46;;;;;;;18.33;9.03;;;14.30;99.90;;;;;;5030384;28;20885;-57
2021/08/17 05:36:13;;;;;;;19.23;9.23;;;14.40;99.90;;;;;;5031559;28;20453;-58
2021/08/17 05:38:40;;;;;;;16.20;9.27;;;14.50;99.90;;;;;;5031105;28;21125;-57
2021/08/17 05:41:07;;;;;;;16.37;8.70;;;14.60;99.90;;;;;;5033839;28;20493;-58
2021/08/17 05:43:34;;;;;;;14.37;8.07;;;14.70;99.90;;;;;;5037287;28;20452;-58
2021/08/17 05:46:03;;;;;;;16.17;8.27;;;14.80;99.90;;;;;;5051114;28;20461;-57
2021/08/17 05:48:32;;;;;;;16.80;9.30;;;14.90;99.90;;;;;;5039650;28;20455;-58
2021/08/17 05:50:59;;;;;;;14.53;8.30;;;15.10;99.90;;;;;;5046033;28;20555;-58
2021/08/17 05:53:26;;;;;;;17.47;8.63;;;15.20;99.90;;;;;;5039359;28;20449;-58
2021/08/17 05:55:53;;;;;;;15.00;8.10;;;15.30;99.90;;;;;;5030920;28;20883;-57
2021/08/17 05:58:20;;;;;;;11.77;6.37;;;15.20;99.90;;;;;;5030711;28;20519;-58
2021/08/17 06:00:47;;;;;;;12.03;7.67;;;15.30;99.90;;;;;;5035559;28;20907;-58
2021/08/17 06:03:15;;;;;;;15.80;7.47;;;15.30;99.90;;;;;;5031095;28;20886;-57
2021/08/17 06:05:42;;;;;;;12.63;6.77;;;15.20;99.90;;;;;;5030684;28;20445;-58
2021/08/17 06:08:09;;;;;;;11.70;6.63;;;15.20;99.90;;;;;;5030514;28;20453;-58
2021/08/17 06:10:36;;;;;;;10.47;6.17;;;15.20;99.90;;;;;;5041864;28;20468;-58
2021/08/17 06:13:03;;;;;;;9.67;6.20;;;15.00;99.90;;;;;;5050696;28;20483;-57
2021/08/17 06:15:30;;;;;;;12.60;6.70;;;15.00;99.90;;;;;;5046016;28;20868;-58
2021/08/17 06:18:04;;;;;;;9.23;5.97;;;15.00;99.90;;;;;;5029233;28;20461;-58
2021/08/17 06:20:33;;;;;;;10.60;6.00;;;15.00;99.90;;;;;;5049362;28;20891;-58
2021/08/17 06:23:00;;;;;;;9.47;5.97;;;15.10;99.90;;;;;;5049275;28;20509;-58
2021/08/17 06:25:28;;;;;;;12.47;7.27;;;15.00;99.90;;;;;;5035604;28;20472;-58
2021/08/17 06:27:55;;;;;;;11.93;7.00;;;15.00;99.90;;;;;;5035831;28;20814;-57
2021/08/17 06:30:22;;;;;;;12.53;6.40;;;15.10;99.90;;;;;;5035648;28;21051;-57
2021/08/17 06:32:50;;;;;;;9.87;5.97;;;15.20;99.90;;;;;;5033601;28;20484;-57
2021/08/17 06:35:17;;;;;;;12.33;6.77;;;15.20;99.90;;;;;;5034388;28;20448;-57
2021/08/17 06:37:46;;;;;;;11.37;5.67;;;15.30;99.90;;;;;;5034302;28;20455;-57
2021/08/17 06:40:14;;;;;;;11.70;6.20;;;15.40;99.90;;;;;;5030445;28;20543;-57
2021/08/17 06:42:41;;;;;;;12.83;6.67;;;15.50;99.90;;;;;;5032357;28;20813;-57
2021/08/17 06:45:10;;;;;;;11.40;6.70;;;15.40;99.90;;;;;;5034243;28;20829;-57
2021/08/17 06:47:48;;;;;;;13.37;7.20;;;15.40;99.90;;;;;;5029763;28;20526;-56
2021/08/17 06:50:15;;;;;;;13.10;6.70;;;15.50;99.90;;;;;;5031801;28;20555;-57
2021/08/17 06:52:43;;;;;;;13.20;7.40;;;15.60;99.90;;;;;;5033337;28;20480;-57
2021/08/17 06:55:14;;;;;;;9.97;5.90;;;15.70;99.90;;;;;;5041068;28;20815;-57
2021/08/17 06:57:42;;;;;;;10.70;5.90;;;15.70;99.90;;;;;;5035244;28;20955;-56
2021/08/17 07:00:11;;;;;;;12.10;6.23;;;15.80;99.90;;;;;;5047115;28;20547;-56
2021/08/17 07:02:38;;;;;;;11.33;6.70;;;15.80;99.90;;;;;;5041779;28;20794;-57
2021/08/17 07:05:07;;;;;;;10.87;6.00;;;15.90;99.90;;;;;;5032541;28;20449;-56
2021/08/17 07:07:34;;;;;;;11.70;6.43;;;15.90;99.90;;;;;;5023494;28;20472;-57
2021/08/17 07:10:01;;;;;;;9.60;6.00;;;15.80;99.90;;;;;;5024754;28;20450;-56
2021/08/17 07:12:29;;;;;;;10.80;5.97;;;15.90;99.90;;;;;;5027274;28;20481;-57
2021/08/17 07:14:57;;;;;;;9.33;5.80;;;16.10;99.90;;;;;;5033594;28;20445;-57
2021/08/17 07:17:24;;;;;;;12.27;6.10;;;16.20;99.90;;;;;;5022364;28;20951;-57
2021/08/17 07:19:51;;;;;;;13.30;6.70;;;16.40;99.90;;;;;;5032896;28;20498;-57
2021/08/17 07:22:18;;;;;;;9.47;5.33;;;16.70;99.90;;;;;;5025226;28;20475;-57
2021/08/17 07:24:45;;;;;;;11.80;7.17;;;17.10;99.90;;;;;;5030018;28;20453;-57
2021/08/17 07:27:12;;;;;;;12.93;6.83;;;17.50;99.90;;;;;;5031456;28;20445;-56
2021/08/17 07:29:40;;;;;;;10.60;6.70;;;17.90;99.90;;;;;;5029792;28;20499;-57
2021/08/17 07:32:08;;;;;;;8.93;6.07;;;18.10;99.90;;;;;;5032764;28;20484;-57
2021/08/17 07:34:35;;;;;;;9.20;6.00;;;18.50;99.90;;;;;;5032935;28;20570;-57
2021/08/17 07:37:01;;;;;;;10.40;6.53;;;19.30;99.90;;;;;;5025727;28;20518;-57
2021/08/17 07:39:29;;;;;;;10.37;5.57;;;20.10;99.90;;;;;;5033157;28;20499;-57
2021/08/17 07:41:57;;;;;;;7.20;5.10;;;20.60;99.90;;;;;;5029875;28;20465;-57
2021/08/17 07:44:25;;;;;;;10.87;6.50;;;20.90;99.90;;;;;;5033000;28;20444;-57
2021/08/17 07:46:54;;;;;;;13.63;6.17;;;21.30;99.90;;;;;;5031035;28;20579;-57
2021/08/17 07:49:21;;;;;;;9.93;6.53;;;21.60;99.90;;;;;;5034869;28;20903;-57
2021/08/17 07:51:48;;;;;;;8.80;5.83;;;21.20;99.90;;;;;;5045785;28;20483;-57
2021/08/17 07:54:15;;;;;;;8.20;5.60;;;21.70;99.90;;;;;;5031035;28;20460;-57
2021/08/17 07:56:42;;;;;;;10.60;6.70;;;22.10;99.90;;;;;;5021589;28;20461;-58
2021/08/17 07:59:09;;;;;;;9.03;6.00;;;21.70;99.90;;;;;;5024746;28;20457;-58
2021/08/17 08:01:36;;;;;;;10.67;6.10;;;21.30;99.90;;;;;;5032361;28;20472;-57
2021/08/17 08:04:05;;;;;;;10.07;6.53;;;20.80;99.90;;;;;;5036767;28;20457;-57
2021/08/17 08:06:32;;;;;;;10.20;6.73;;;20.70;99.90;;;;;;5031948;28;20510;-57
2021/08/17 08:08:59;;;;;;;10.23;6.57;;;20.80;99.90;;;;;;5026143;28;20974;-58
2021/08/17 08:11:26;;;;;;;10.70;6.10;;;20.80;99.90;;;;;;5028973;28;20484;-58
2021/08/17 08:13:53;;;;;;;8.20;5.43;;;20.90;99.90;;;;;;5024516;28;20448;-57
2021/08/17 08:16:20;;;;;;;10.83;6.53;;;20.90;99.90;;;;;;5031806;28;21009;-57
2021/08/17 08:18:48;;;;;;;9.87;6.50;;;21.10;99.90;;;;;;5032119;28;20460;-57
2021/08/17 08:21:16;;;;;;;10.60;6.63;;;21.10;99.90;;;;;;5030928;28;20499;-57
2021/08/17 08:23:43;;;;;;;11.13;7.07;;;21.30;99.90;;;;;;5030363;28;20449;-57
2021/08/17 08:26:10;;;;;;;8.80;6.37;;;21.60;99.90;;;;;;5031663;28;20452;-58
2021/08/17 08:28:37;;;;;;;10.93;6.60;;;22.20;99.90;;;;;;5031763;28;20506;-57
2021/08/17 08:31:05;;;;;;;9.90;5.97;;;22.60;99.90;;;;;;5031275;28;20534;-58
2021/08/17 08:33:32;;;;;;;10.07;7.23;;;22.50;99.90;;;;;;5031117;28;20480;-57
2021/08/17 08:35:59;;;;;;;9.90;6.40;;;21.90;99.90;;;;;;5031797;28;20449;-57
2021/08/17 08:38:27;;;;;;;11.83;7.73;;;21.50;99.90;;;;;;5032190;28;20452;-58
2021/08/17 08:40:54;;;;;;;10.50;6.83;;;21.60;99.90;;;;;;5030167;28;20538;-57
2021/08/17 08:43:23;;;;;;;9.83;6.70;;;20.60;99.90;;;;;;5030690;28;20448;-57
2021/08/17 08:45:50;;;;;;;12.67;7.13;;;21.00;99.90;;;;;;5031110;28;20506;-57
2021/08/17 08:48:20;;;;;;;10.50;6.17;;;21.20;99.90;;;;;;5031511;28;20460;-57
2021/08/17 08:50:47;;;;;;;12.80;7.00;;;21.20;99.90;;;;;;5029793;28;20487;-58
2021/08/17 08:53:16;;;;;;;10.47;6.67;;;21.80;99.90;;;;;;5030778;28;21000;-58
2021/08/17 08:55:45;;;;;;;12.40;7.23;;;22.00;99.90;;;;;;5039553;28;20452;-58
2021/08/17 08:58:12;;;;;;;9.50;6.43;;;22.40;99.90;;;;;;5031641;28;20535;-58
2021/08/17 09:00:39;;;;;;;11.63;6.97;;;23.00;99.90;;;;;;5041474;28;20463;-58
2021/08/17 09:03:09;;;;;;;10.20;7.03;;;23.10;99.90;;;;;;5035873;28;20499;-58
2021/08/17 09:05:50;;;;;;;14.13;7.70;;;23.00;99.90;;;;;;5031382;28;20536;-58
2021/08/17 09:08:23;;;;;;;12.57;7.20;;;23.20;99.90;;;;;;5030395;28;20452;-58
2021/08/17 09:10:52;;;;;;;12.63;6.50;;;22.80;99.90;;;;;;5030787;28;20881;-59
2021/08/17 09:13:25;;;;;;;10.50;7.13;;;22.40;99.90;;;;;;5048435;28;20479;-58
2021/08/17 09:15:52;;;;;;;10.30;7.00;;;21.90;99.90;;;;;;5046341;28;20446;-58
2021/08/17 09:18:19;;;;;;;12.60;7.27;;;21.90;99.90;;;;;;5031555;28;20448;-58
2021/08/17 09:20:48;;;;;;;12.97;6.90;;;21.90;99.90;;;;;;5030785;28;20476;-58
2021/08/17 09:23:26;;;;;;;9.73;6.60;;;22.20;99.90;;;;;;5031165;28;20506;-57
2021/08/17 09:25:56;;;;;;;10.40;6.73;;;22.80;99.90;;;;;;5031206;28;20448;-58
2021/08/17 09:28:32;;;;;;;11.90;7.30;;;23.30;99.90;;;;;;5031424;28;20444;-58
2021/08/17 09:31:01;;;;;;;11.33;7.00;;;23.80;99.90;;;;;;5031413;28;20464;-58
2021/08/17 09:33:41;;;;;;;14.13;7.97;;;24.30;99.90;;;;;;5031152;28;20542;-58
2021/08/17 09:36:10;;;;;;;12.00;7.20;;;24.30;99.90;;;;;;5030909;28;20506;-58
2021/08/17 09:38:37;;;;;;;12.87;8.80;;;24.50;99.90;;;;;;5031297;28;21009;-58
2021/08/17 09:41:19;;;;;;;12.43;7.33;;;23.90;99.90;;;;;;5031151;28;20491;-57
2021/08/17 09:43:56;;;;;;;10.67;7.07;;;23.20;99.90;;;;;;5031007;28;21006;-57
2021/08/17 09:46:27;;;;;;;12.73;8.10;;;23.20;99.90;;;;;;5030996;28;20452;-58
2021/08/17 09:48:56;;;;;;;12.20;7.60;;;23.00;99.90;;;;;;5031177;28;20966;-57
2021/08/17 09:51:33;;;;;;;11.50;7.60;;;23.00;99.90;;;;;;5030888;28;20488;-57
2021/08/17 09:54:13;;;;;;;11.37;7.23;;;20.90;99.90;;;;;;5034347;28;20491;-57
2021/08/17 09:56:43;;;;;;;11.97;7.70;;;19.90;99.90;;;;;;5026967;28;20514;-58
2021/08/17 09:59:18;;;;;;;11.97;7.53;;;18.80;99.90;;;;;;5033757;28;20506;-58
2021/08/17 10:01:45;;;;;;;12.60;6.80;;;18.80;99.90;;;;;;5034705;28;20522;-58
2021/08/17 10:04:12;;;;;;;10.77;7.47;;;18.60;99.90;;;;;;5034573;28;20867;-58
2021/08/17 10:06:40;;;;;;;12.70;6.87;;;19.00;99.90;;;;;;5032543;28;20958;-59
2021/08/17 10:09:07;;;;;;;9.37;6.10;;;19.70;99.90;;;;;;5034192;28;20461;-59
2021/08/17 10:11:35;;;;;;;11.50;6.53;;;20.90;99.90;;;;;;5034294;28;20514;-59
2021/08/17 10:14:04;;;;;;;11.10;6.50;;;21.50;99.90;;;;;;5034356;28;20557;-60
2021/08/17 10:16:33;;;;;;;8.80;6.20;;;21.50;99.90;;;;;;5034337;28;21002;-58
2021/08/17 10:19:01;;;;;;;14.00;6.80;;;21.60;99.90;;;;;;5034266;28;20531;-59
2021/08/17 10:21:28;;;;;;;10.90;7.07;;;22.10;99.90;;;;;;5028730;28;20535;-59
2021/08/17 10:23:55;;;;;;;12.17;7.37;;;22.00;99.90;;;;;;5028817;28;20444;-59
2021/08/17 10:26:30;;;;;;;10.63;7.07;;;21.60;99.90;;;;;;5015679;28;20511;-59
2021/08/17 10:28:58;;;;;;;9.20;6.20;;;21.80;99.90;;;;;;5014371;28;20448;-59
2021/08/17 10:31:28;;;;;;;10.00;6.40;;;21.50;99.90;;;;;;5017391;28;20477;-58
2021/08/17 10:34:08;;;;;;;10.80;7.57;;;21.60;99.90;;;;;;5019039;28;21022;-59
2021/08/17 10:36:37;;;;;;;14.63;6.93;;;21.50;99.90;;;;;;5033133;28;20866;-59
2021/08/17 10:39:06;;;;;;;10.50;6.47;;;20.50;99.90;;;;;;5048348;28;20439;-59
2021/08/17 10:41:36;;;;;;;10.53;7.00;;;19.80;99.90;;;;;;5053856;28;20480;-58
2021/08/17 10:44:19;;;;;;;10.30;6.77;;;19.50;99.90;;;;;;5053888;28;20536;-58
2021/08/17 10:46:58;;;;;;;11.93;6.63;;;19.30;99.90;;;;;;5037088;28;20475;-59
2021/08/17 10:49:28;;;;;;;11.33;6.83;;;20.30;99.90;;;;;;5033749;28;20452;-59
2021/08/17 10:51:56;;;;;;;10.93;6.20;;;21.10;99.90;;;;;;5013621;28;20556;-61
2021/08/17 10:54:23;;;;;;;11.90;7.27;;;22.00;99.90;;;;;;5022837;28;20480;-60
2021/08/17 10:56:50;;;;;;;14.67;7.47;;;22.60;99.90;;;;;;5034321;28;20511;-60
2021/08/17 10:59:39;;;;;;;10.20;6.40;;;23.00;99.90;;;;;;5033619;28;20448;-60
2021/08/17 11:02:09;;;;;;;10.77;6.60;;;22.70;99.90;;;;;;5040956;28;21082;-60
2021/08/17 11:04:43;;;;;;;9.07;6.20;;;22.40;99.90;;;;;;5028965;28;20553;-60
2021/08/17 11:07:30;;;;;;;11.90;7.13;;;22.20;99.90;;;;;;5027504;28;20440;-59
2021/08/17 11:09:58;;;;;;;11.70;6.97;;;22.20;99.90;;;;;;5033348;28;20449;-60
2021/08/17 11:12:35;;;;;;;10.57;6.60;;;21.10;99.90;;;;;;5032726;28;20448;-59
2021/08/17 11:15:03;;;;;;;12.07;6.97;;;21.10;99.90;;;;;;5033649;28;20498;-60
2021/08/17 11:17:31;;;;;;;11.03;6.03;;;21.10;99.90;;;;;;5035756;28;20451;-60
2021/08/17 11:19:58;;;;;;;10.07;6.80;;;20.90;99.90;;;;;;5036365;28;20455;-60
2021/08/17 11:22:34;;;;;;;9.87;6.30;;;21.10;99.90;;;;;;5035861;28;20509;-60
2021/08/17 11:25:05;;;;;;;9.03;5.87;;;21.20;99.90;;;;;;5052960;28;20903;-60
2021/08/17 11:27:37;;;;;;;14.03;7.30;;;21.40;99.90;;;;;;5052982;28;20794;-60
2021/08/17 11:30:07;;;;;;;10.40;6.97;;;21.50;99.90;;;;;;5052823;28;21008;-60
2021/08/17 11:32:37;;;;;;;13.53;7.43;;;21.70;99.90;;;;;;5038899;28;20455;-59
2021/08/17 11:35:07;;;;;;;10.73;6.77;;;22.10;99.90;;;;;;5040160;28;20440;-60
2021/08/17 11:37:36;;;;;;;10.50;7.07;;;21.90;99.90;;;;;;5052958;28;20899;-60
2021/08/17 11:40:05;;;;;;;9.97;6.80;;;21.60;99.90;;;;;;5052729;28;20448;-59
2021/08/17 11:42:33;;;;;;;10.43;6.60;;;20.80;99.90;;;;;;5038963;28;20452;-60
2021/08/17 11:45:04;;;;;;;11.70;7.43;;;19.80;99.90;;;;;;5032434;28;20457;-59
2021/08/17 11:47:31;;;;;;;16.33;8.33;;;19.00;99.90;;;;;;5032791;28;20453;-59
2021/08/17 11:50:01;;;;;;;10.63;6.60;;;19.00;99.90;;;;;;5032554;28;20444;-59
2021/08/17 11:52:35;;;;;;;10.53;6.47;;;19.50;99.90;;;;;;5032230;28;20445;-59
2021/08/17 11:55:07;;;;;;;11.17;6.90;;;20.10;99.90;;;;;;5032663;28;20441;-59
2021/08/17 11:57:35;;;;;;;11.30;7.10;;;20.60;99.90;;;;;;5032623;28;20448;-59
2021/08/17 12:00:11;;;;;;;12.27;7.40;;;21.00;99.90;;;;;;5032403;28;20494;-59
2021/08/17 12:02:40;;;;;;;9.67;6.73;;;21.50;99.90;;;;;;5032193;28;20448;-59
2021/08/17 12:05:10;;;;;;;13.70;8.43;;;21.80;99.90;;;;;;5041970;28;20501;-59
2021/08/17 12:07:37;;;;;;;10.90;6.47;;;21.60;99.90;;;;;;5034558;28;20494;-60
2021/08/17 12:10:09;;;;;;;11.33;6.77;;;21.80;99.90;;;;;;5032169;28;20877;-59
2021/08/17 12:12:59;;;;;;;13.17;7.60;;;21.60;99.90;;;;;;5034392;28;20942;-60
2021/08/17 12:15:33;;;;;;;12.10;7.27;;;22.00;99.90;;;;;;5032378;28;20456;-60
2021/08/17 12:18:02;;;;;;;12.30;7.40;;;21.90;99.90;;;;;;5032234;28;20448;-59
2021/08/17 12:20:32;;;;;;;12.70;7.73;;;22.00;99.90;;;;;;5032508;28;20885;-60
2021/08/17 12:22:59;;;;;;;16.30;8.50;;;22.00;99.90;;;;;;5040902;28;20447;-59
2021/08/17 12:25:27;;;;;;;11.60;7.23;;;21.60;99.90;;;;;;5034239;28;20452;-60
2021/08/17 12:27:56;;;;;;;12.80;7.97;;;21.50;99.90;;;;;;5032145;28;20445;-59
2021/08/17 12:30:27;;;;;;;10.83;7.13;;;21.40;99.90;;;;;;5031961;28;20476;-60
2021/08/17 12:32:55;;;;;;;9.83;6.93;;;21.60;99.90;;;;;;5031305;28;20483;-60
2021/08/17 12:35:26;;;;;;;10.40;7.03;;;21.70;99.90;;;;;;5031360;28;20520;-59
2021/08/17 12:37:55;;;;;;;13.30;7.23;;;21.80;99.90;;;;;;5031686;28;20448;-59
2021/08/17 12:40:22;;;;;;;11.43;7.47;;;21.80;99.90;;;;;;5031173;28;21369;-59
2021/08/17 12:42:49;;;;;;;11.20;7.27;;;21.80;99.90;;;;;;5031336;28;20506;-59